Time;durP1;ratioP1;P1;durP2;ratioP2;P2;SDS_P1;SDS_P2;PMS_P1;PMS_P2;Temp;Humidity;BMP_temperature;BMP_pressure;BME280_temperature;BME280_humidity;BME280_pressure;Samples;Min_cycle;Max_cycle;Signal;HPM_P1;HPM_P2
2021/12/22 00:01:12;;;;;;;23.80;9.35;;;;;;;-5.38;100.00;98874.03;5073911;28;20037;-55
2021/12/22 00:03:42;;;;;;;28.80;9.43;;;;;;;-5.41;100.00;98869.66;5078593;28;20400;-55
2021/12/22 00:06:07;;;;;;;26.50;9.68;;;;;;;-5.49;100.00;98871.94;5074536;28;20056;-54
2021/12/22 00:08:33;;;;;;;24.73;8.88;;;;;;;-5.44;100.00;98865.34;5074810;28;20115;-56
2021/12/22 00:10:58;;;;;;;26.42;9.10;;;;;;;-5.56;100.00;98859.81;5071919;28;20112;-55
2021/12/22 00:13:23;;;;;;;26.10;9.50;;;;;;;-5.50;100.00;98864.25;5073676;28;20035;-55
2021/12/22 00:15:49;;;;;;;29.20;9.68;;;;;;;-5.72;99.18;98868.53;5074703;28;20160;-55
2021/12/22 00:18:14;;;;;;;26.95;9.57;;;;;;;-5.69;100.00;98873.75;5066975;28;20074;-55
2021/12/22 00:20:40;;;;;;;29.58;9.07;;;;;;;-5.49;100.00;98871.94;5071324;28;20086;-54
2021/12/22 00:23:05;;;;;;;23.75;8.80;;;;;;;-5.64;99.14;98877.34;5077783;28;20020;-57
2021/12/22 00:25:30;;;;;;;24.00;9.00;;;;;;;-5.82;100.00;98871.56;5075094;28;20060;-56
2021/12/22 00:27:58;;;;;;;20.27;8.52;;;;;;;-5.57;100.00;98877.53;5077493;28;20064;-54
2021/12/22 00:30:26;;;;;;;22.58;8.85;;;;;;;-5.52;100.00;98865.88;5076038;28;20077;-55
2021/12/22 00:32:55;;;;;;;25.10;9.55;;;;;;;-5.56;100.00;98871.66;5076167;28;20024;-54
2021/12/22 00:35:26;;;;;;;24.15;9.23;;;;;;;-5.60;100.00;98873.22;5072507;28;20110;-54
2021/12/22 00:37:52;;;;;;;22.52;8.98;;;;;;;-5.63;100.00;98876.50;5073919;28;20374;-55
2021/12/22 00:40:17;;;;;;;22.50;8.90;;;;;;;-5.69;100.00;98868.66;5074283;28;20028;-54
2021/12/22 00:42:42;;;;;;;21.98;8.55;;;;;;;-5.75;99.28;98868.44;5077462;28;20171;-54
2021/12/22 00:45:10;;;;;;;24.98;9.70;;;;;;;-5.72;100.00;98873.63;5075894;28;20021;-55
2021/12/22 00:47:36;;;;;;;22.33;8.93;;;;;;;-5.74;100.00;98875.25;5077487;28;20165;-54
2021/12/22 00:50:03;;;;;;;20.98;7.82;;;;;;;-5.97;99.69;98864.25;5077588;28;20614;-54
2021/12/22 00:52:29;;;;;;;27.67;8.95;;;;;;;-5.81;100.00;98865.66;5083410;28;20032;-56
2021/12/22 00:54:55;;;;;;;22.65;8.60;;;;;;;-5.79;100.00;98865.72;5074925;28;20028;-54
2021/12/22 00:57:20;;;;;;;24.30;8.75;;;;;;;-5.83;100.00;98870.66;5079623;28;20219;-55
2021/12/22 00:59:47;;;;;;;24.35;8.65;;;;;;;-6.05;99.81;98865.63;5076815;28;20028;-54
2021/12/22 01:02:15;;;;;;;24.90;9.13;;;;;;;-5.76;100.00;98870.91;5073432;28;20677;-57
2021/12/22 01:04:42;;;;;;;23.13;8.88;;;;;;;-5.67;99.06;98876.34;5073455;28;20024;-55
2021/12/22 01:07:07;;;;;;;26.77;9.75;;;;;;;-5.81;99.85;98873.28;5079990;28;20085;-54
2021/12/22 01:09:33;;;;;;;27.60;9.00;;;;;;;-5.74;99.63;98875.25;5080339;28;20024;-55
2021/12/22 01:11:59;;;;;;;20.92;7.32;;;;;;;-5.89;100.00;98872.13;5077482;28;20512;-54
2021/12/22 01:14:24;;;;;;;24.60;8.52;;;;;;;-5.86;100.00;98874.81;5073437;28;20131;-55
2021/12/22 01:16:51;;;;;;;32.35;9.30;;;;;;;-5.83;99.38;98870.66;5076429;28;20028;-55
2021/12/22 01:19:26;;;;;;;27.30;9.38;;;;;;;-5.85;99.83;98867.22;5081319;28;20551;-55
2021/12/22 01:22:05;;;;;;;20.85;8.00;;;;;;;-6.05;99.66;98886.78;5074825;28;20111;-56
2021/12/22 01:24:33;;;;;;;26.65;8.90;;;;;;;-6.14;100.00;98893.19;5078350;28;20081;-55
2021/12/22 01:27:08;;;;;;;25.35;8.70;;;;;;;-5.94;100.00;98891.41;5077281;28;20032;-56
2021/12/22 01:29:37;;;;;;;26.50;8.90;;;;;;;-5.97;100.00;98879.50;5078289;28;20073;-55
2021/12/22 01:32:04;;;;;;;24.50;9.27;;;;;;;-6.20;100.00;98883.66;5081328;28;20036;-55
2021/12/22 01:34:30;;;;;;;23.88;8.40;;;;;;;-6.22;100.00;98890.38;5076407;28;20024;-56
2021/12/22 01:36:56;;;;;;;27.85;8.90;;;;;;;-6.01;100.00;98896.28;5076711;28;20462;-54
2021/12/22 01:39:21;;;;;;;29.35;9.27;;;;;;;-6.09;100.00;98890.03;5079215;28;20035;-59
2021/12/22 01:41:47;;;;;;;28.70;8.85;;;;;;;-6.04;100.00;98880.94;5079249;28;20056;-57
2021/12/22 01:44:26;;;;;;;25.60;9.35;;;;;;;-6.09;100.00;98882.41;5076917;28;20320;-56
2021/12/22 01:49:51;;;;;;;27.15;10.15;;;;;;;-6.07;100.00;98880.78;5078100;28;20030;-55
2021/12/22 01:52:19;;;;;;;27.80;9.60;;;;;;;-6.04;100.00;98886.00;5075291;28;20056;-55
2021/12/22 01:55:04;;;;;;;24.98;9.32;;;;;;;-6.08;99.72;98888.38;5076905;28;20039;-56
2021/12/22 01:57:32;;;;;;;25.30;8.60;;;;;;;-6.11;98.56;98889.09;5086025;27;20067;-55
2021/12/22 02:00:00;;;;;;;25.20;9.02;;;;;;;-6.17;100.00;98896.50;5075850;28;20032;-55
2021/12/22 02:02:26;;;;;;;25.23;8.90;;;;;;;-6.15;98.61;98891.47;5076117;28;20059;-55
2021/12/22 02:04:51;;;;;;;22.02;8.75;;;;;;;-6.29;98.78;98898.53;5080112;28;20101;-55
2021/12/22 02:07:17;;;;;;;30.23;9.20;;;;;;;-6.28;100.00;98902.81;5077791;28;20032;-55
2021/12/22 02:10:02;;;;;;;23.23;8.68;;;;;;;-6.22;100.00;98903.06;5078217;28;20173;-57
2021/12/22 02:12:30;;;;;;;24.08;8.60;;;;;;;-6.21;100.00;98904.81;5074235;28;20089;-54
2021/12/22 02:14:56;;;;;;;29.38;9.68;;;;;;;-6.21;100.00;98900.59;5074348;28;20025;-56
2021/12/22 02:17:21;;;;;;;23.13;8.55;;;;;;;-6.27;100.00;98896.91;5076446;28;20046;-54
2021/12/22 02:19:48;;;;;;;24.27;7.97;;;;;;;-6.23;100.00;98897.13;5074811;28;20062;-54
2021/12/22 02:22:16;;;;;;;23.25;8.52;;;;;;;-6.21;100.00;98889.56;5072264;28;20037;-55
2021/12/22 02:24:50;;;;;;;27.10;9.68;;;;;;;-6.18;98.87;98884.59;5076857;28;20916;-55
2021/12/22 02:27:33;;;;;;;23.23;8.73;;;;;;;-6.22;97.56;98883.59;5074679;28;20034;-55
2021/12/22 02:30:02;;;;;;;23.63;8.55;;;;;;;-6.30;96.67;98889.22;5081553;28;20025;-55
2021/12/22 02:35:00;;;;;;;23.02;8.20;;;;;;;-6.52;100.00;98878.19;5081694;28;20100;-55
2021/12/22 02:37:26;;;;;;;21.70;7.85;;;;;;;-6.47;100.00;98884.31;5072573;28;20084;-54
2021/12/22 02:39:59;;;;;;;26.80;8.90;;;;;;;-6.34;100.00;98889.88;5075146;28;20894;-54
2021/12/22 02:42:29;;;;;;;21.73;8.35;;;;;;;-6.18;99.21;98892.22;5076220;28;20043;-54
2021/12/22 02:44:54;;;;;;;23.52;8.57;;;;;;;-6.29;98.20;98888.38;5074425;28;20020;-55
2021/12/22 02:47:23;;;;;;;29.65;8.90;;;;;;;-6.24;98.84;98889.44;5076227;28;20054;-55
2021/12/22 02:49:48;;;;;;;27.33;9.43;;;;;;;-6.46;100.00;98891.09;5074638;28;20023;-56
2021/12/22 02:52:15;;;;;;;23.65;8.18;;;;;;;-6.40;99.35;98895.56;5075855;28;20088;-54
2021/12/22 02:54:47;;;;;;;26.95;9.57;;;;;;;-6.40;97.89;98895.56;5074575;28;20099;-54
2021/12/22 02:57:48;;;;;;;21.90;7.95;;;;;;;-6.46;100.00;98895.31;5078856;28;20035;-54
2021/12/22 03:04:58;;;;;;;21.45;8.98;;;;;;;-6.29;98.56;98908.69;5078028;28;20043;-54
2021/12/22 03:07:28;;;;;;;21.98;8.70;;;;;;;-6.51;100.00;98907.81;5075736;28;20037;-54
2021/12/22 03:10:00;;;;;;;19.80;8.25;;;;;;;-6.48;100.00;98907.94;5074431;28;20024;-54
2021/12/22 03:12:28;;;;;;;21.23;9.13;;;;;;;-6.49;100.00;98905.34;5092692;27;20043;-55
2021/12/22 03:14:54;;;;;;;23.00;8.50;;;;;;;-6.45;100.00;98905.53;5080106;28;20750;-54
2021/12/22 03:17:19;;;;;;;22.35;8.07;;;;;;;-6.40;100.00;98911.66;5077515;28;20047;-54
2021/12/22 03:19:44;;;;;;;25.20;8.93;;;;;;;-6.25;100.00;98905.47;5078636;28;20026;-55
2021/12/22 03:22:11;;;;;;;20.90;8.57;;;;;;;-6.08;100.00;98907.00;5075061;28;20043;-53
2021/12/22 03:24:39;;;;;;;19.67;8.27;;;;;;;-6.12;100.00;98897.56;5079027;28;20689;-55
2021/12/22 03:27:04;;;;;;;21.75;8.43;;;;;;;-6.11;100.00;98899.28;5073259;28;20153;-54
2021/12/22 03:29:32;;;;;;;19.33;8.25;;;;;;;-6.15;100.00;98894.88;5079773;28;20066;-56
2021/12/22 03:31:58;;;;;;;20.95;8.13;;;;;;;-6.12;100.00;98901.75;5074898;28;20032;-55
2021/12/22 03:34:23;;;;;;;21.38;8.10;;;;;;;-6.14;100.00;98906.75;5074807;28;20027;-56
2021/12/22 03:36:49;;;;;;;22.55;8.48;;;;;;;-6.02;100.00;98901.31;5072873;28;20032;-56
2021/12/22 03:39:15;;;;;;;24.02;8.48;;;;;;;-6.17;100.00;98909.19;5073200;28;20479;-55
2021/12/22 03:41:42;;;;;;;19.55;7.78;;;;;;;-6.00;100.00;98902.22;5075231;28;20695;-55
2021/12/22 03:44:08;;;;;;;19.60;7.60;;;;;;;-5.94;100.00;98902.44;5074874;28;20655;-56
2021/12/22 03:46:35;;;;;;;20.50;7.82;;;;;;;-5.96;100.00;98903.22;5076900;28;20329;-55
2021/12/22 03:49:00;;;;;;;19.20;6.80;;;;;;;-6.06;100.00;98907.09;5077259;28;20064;-55
2021/12/22 03:51:27;;;;;;;18.33;7.65;;;;;;;-5.87;100.00;98913.72;5076992;28;20087;-56
2021/12/22 03:53:53;;;;;;;19.52;8.13;;;;;;;-6.07;100.00;98915.50;5078352;28;20770;-55
2021/12/22 03:56:19;;;;;;;20.35;8.15;;;;;;;-6.05;100.00;98912.19;5071989;28;20042;-55
2021/12/22 03:58:44;;;;;;;22.65;8.30;;;;;;;-6.18;100.00;98904.91;5075732;28;20036;-56
2021/12/22 04:01:10;;;;;;;18.08;7.90;;;;;;;-6.26;100.00;98909.69;5073231;28;20043;-57
2021/12/22 04:03:37;;;;;;;24.02;9.07;;;;;;;-6.36;100.00;98902.50;5075762;28;20025;-54
2021/12/22 04:06:03;;;;;;;19.02;7.60;;;;;;;-6.65;100.00;98902.19;5072529;28;20036;-54
2021/12/22 04:08:29;;;;;;;17.63;7.13;;;;;;;-7.02;100.00;98902.28;5080209;28;20124;-55
2021/12/22 04:10:54;;;;;;;20.27;8.13;;;;;;;-6.92;100.00;98909.50;5076487;28;20119;-55
2021/12/22 04:13:20;;;;;;;20.15;7.65;;;;;;;-6.65;100.00;98908.94;5072081;28;20028;-55
2021/12/22 04:15:46;;;;;;;17.58;7.15;;;;;;;-6.54;99.71;98907.72;5080303;28;20118;-55
2021/12/22 04:18:12;;;;;;;19.10;7.90;;;;;;;-6.75;100.00;98906.81;5072284;28;20602;-54
2021/12/22 04:20:37;;;;;;;25.30;9.43;;;;;;;-6.80;100.00;98912.56;5071564;28;20036;-55
2021/12/22 04:23:03;;;;;;;19.75;8.23;;;;;;;-6.80;100.00;98916.75;5073312;28;20624;-55
2021/12/22 04:25:32;;;;;;;23.88;8.13;;;;;;;-6.75;100.00;98916.94;5077204;28;20040;-56
2021/12/22 04:28:05;;;;;;;18.15;7.40;;;;;;;-6.83;100.00;98914.97;5071639;28;20407;-55
2021/12/22 04:30:32;;;;;;;25.55;8.23;;;;;;;-6.84;100.00;98915.75;5087483;28;20426;-54
2021/12/22 04:32:59;;;;;;;21.40;7.45;;;;;;;-7.01;100.00;98919.25;5076354;28;20028;-55
2021/12/22 04:35:24;;;;;;;22.45;8.45;;;;;;;-6.67;100.00;98913.06;5074611;28;20058;-55
2021/12/22 04:37:50;;;;;;;19.13;7.65;;;;;;;-6.75;99.83;98920.34;5074747;28;20016;-54
2021/12/22 04:40:16;;;;;;;16.27;6.57;;;;;;;-6.72;98.38;98922.16;5074637;28;20541;-56
2021/12/22 04:42:43;;;;;;;19.17;7.57;;;;;;;-6.79;97.79;98924.44;5074916;28;20031;-55
2021/12/22 04:45:09;;;;;;;21.63;7.70;;;;;;;-6.89;99.29;98918.88;5077168;28;20025;-56
2021/12/22 04:47:35;;;;;;;17.85;7.53;;;;;;;-7.22;100.00;98914.97;5078465;28;20155;-56
2021/12/22 04:50:02;;;;;;;22.67;7.90;;;;;;;-6.98;100.00;98909.25;5073770;28;20065;-55
2021/12/22 04:52:37;;;;;;;19.25;7.28;;;;;;;-6.83;97.40;98919.16;5077997;28;20031;-55
2021/12/22 04:55:04;;;;;;;19.30;6.72;;;;;;;-6.80;97.29;98912.56;5071854;28;20507;-54
2021/12/22 04:57:33;;;;;;;21.08;7.60;;;;;;;-6.81;96.44;98910.81;5069077;28;20467;-54
2021/12/22 05:00:00;;;;;;;19.77;7.72;;;;;;;-6.86;96.14;98911.41;5070405;28;20023;-55
2021/12/22 05:02:26;;;;;;;20.17;7.63;;;;;;;-6.83;95.43;98914.09;5092545;28;20063;-54
2021/12/22 05:04:51;;;;;;;18.40;7.50;;;;;;;-6.86;96.49;98922.44;5074036;28;20065;-56
2021/12/22 05:07:17;;;;;;;19.20;7.13;;;;;;;-7.03;97.82;98915.78;5076003;28;20173;-53
2021/12/22 05:09:42;;;;;;;23.85;8.15;;;;;;;-6.75;96.26;98917.81;5074735;28;20123;-54
2021/12/22 05:12:08;;;;;;;22.80;8.95;;;;;;;-6.87;95.88;98919.84;5071170;28;20135;-55
2021/12/22 05:14:34;;;;;;;31.52;10.30;;;;;;;-6.97;98.26;98911.81;5076870;28;20020;-54
2021/12/22 05:17:02;;;;;;;25.60;9.95;;;;;;;-7.14;99.50;98914.44;5073112;28;20117;-53
2021/12/22 05:19:27;;;;;;;21.05;7.68;;;;;;;-7.40;100.00;98914.16;5069305;28;20603;-55
2021/12/22 05:21:54;;;;;;;21.30;7.53;;;;;;;-7.15;99.28;98930.44;5071175;28;20035;-54
2021/12/22 05:24:19;;;;;;;20.33;7.03;;;;;;;-7.07;98.19;98924.06;5070601;28;20111;-54
2021/12/22 05:26:44;;;;;;;17.70;7.63;;;;;;;-7.04;98.44;98921.63;5077958;28;20044;-54
2021/12/22 05:29:11;;;;;;;24.70;7.80;;;;;;;-6.97;95.20;98916.88;5074604;28;20035;-55
2021/12/22 05:31:37;;;;;;;25.33;9.27;;;;;;;-7.21;98.50;98916.69;5073138;28;20134;-55
2021/12/22 05:34:03;;;;;;;26.92;8.90;;;;;;;-7.20;96.68;98918.44;5078494;28;20119;-55
2021/12/22 05:36:28;;;;;;;25.10;9.40;;;;;;;-7.05;96.08;98912.31;5075866;28;20074;-53
2021/12/22 05:38:54;;;;;;;28.13;10.27;;;;;;;-7.08;95.03;98913.03;5074120;28;20308;-55
2021/12/22 05:41:19;;;;;;;25.95;9.35;;;;;;;-7.11;93.95;98915.44;5079958;28;20678;-55
2021/12/22 05:43:44;;;;;;;22.50;8.65;;;;;;;-7.11;95.91;98922.16;5076453;28;20638;-54
2021/12/22 05:46:10;;;;;;;21.70;8.07;;;;;;;-7.31;97.32;98928.94;5078179;28;20070;-54
2021/12/22 05:48:35;;;;;;;19.80;7.47;;;;;;;-7.31;97.12;98929.78;5076531;28;20040;-54
2021/12/22 05:51:01;;;;;;;17.15;6.07;;;;;;;-7.37;98.30;98934.56;5075755;28;20124;-56
2021/12/22 05:53:28;;;;;;;18.75;6.57;;;;;;;-7.29;97.98;98927.31;5077859;28;20084;-53
2021/12/22 05:55:55;;;;;;;20.65;7.03;;;;;;;-7.21;97.10;98925.97;5080407;28;20500;-54
2021/12/22 05:58:21;;;;;;;19.02;8.27;;;;;;;-7.04;100.00;98917.47;5074314;28;20024;-54
2021/12/22 06:00:47;;;;;;;25.70;7.90;;;;;;;-7.12;98.15;98925.53;5077923;28;20042;-53
2021/12/22 06:03:12;;;;;;;19.25;7.72;;;;;;;-7.02;95.16;98918.38;5073705;28;20027;-56
2021/12/22 06:05:40;;;;;;;19.35;7.60;;;;;;;-7.21;93.85;98921.78;5076765;28;20187;-55
2021/12/22 06:08:06;;;;;;;19.05;7.45;;;;;;;-7.48;95.02;98925.59;5079570;28;20138;-54
2021/12/22 06:10:34;;;;;;;18.50;7.35;;;;;;;-7.37;95.52;98920.25;5075903;28;20136;-56
2021/12/22 06:13:08;;;;;;;18.75;7.10;;;;;;;-7.32;95.81;98922.97;5080412;28;20020;-56
2021/12/22 06:15:36;;;;;;;17.83;7.10;;;;;;;-7.40;96.43;98922.63;5078904;28;20074;-54
2021/12/22 06:18:03;;;;;;;16.52;7.05;;;;;;;-7.25;94.21;98924.97;5070563;28;20083;-55
2021/12/22 06:20:30;;;;;;;18.58;6.53;;;;;;;-7.40;94.43;98924.31;5074710;28;20110;-57
2021/12/22 06:22:55;;;;;;;17.33;6.93;;;;;;;-7.50;94.20;98919.59;5065143;28;20056;-55
2021/12/22 06:25:23;;;;;;;18.77;6.93;;;;;;;-7.32;93.76;98917.91;5075073;28;20063;-55
2021/12/22 06:27:48;;;;;;;20.60;7.00;;;;;;;-7.42;95.40;98916.63;5083541;28;20568;-57
2021/12/22 06:30:14;;;;;;;16.73;6.78;;;;;;;-7.41;96.06;98912.41;5077011;28;20529;-55
2021/12/22 06:32:39;;;;;;;15.05;6.63;;;;;;;-7.41;93.52;98917.50;5079765;28;20092;-56
2021/12/22 06:35:05;;;;;;;20.67;7.03;;;;;;;-7.30;94.46;98915.44;5076523;28;20035;-55
2021/12/22 06:37:31;;;;;;;17.90;6.65;;;;;;;-7.32;98.67;98912.81;5079743;28;20047;-55
2021/12/22 06:39:57;;;;;;;20.83;7.90;;;;;;;-7.49;93.95;98914.63;5079486;28;20060;-56
2021/12/22 06:42:25;;;;;;;16.77;7.18;;;;;;;-7.26;96.74;98919.81;5081909;27;20170;-55
2021/12/22 06:44:51;;;;;;;19.50;7.40;;;;;;;-7.14;93.98;98909.38;5079652;28;20036;-56
2021/12/22 06:47:17;;;;;;;20.38;7.97;;;;;;;-7.36;96.56;98911.81;5080016;28;20039;-54
2021/12/22 06:49:42;;;;;;;19.67;7.95;;;;;;;-7.44;96.29;98912.31;5080916;28;20024;-56
2021/12/22 06:52:08;;;;;;;19.50;8.15;;;;;;;-7.48;95.08;98918.91;5079663;28;20036;-56
2021/12/22 06:54:33;;;;;;;19.77;8.23;;;;;;;-7.52;96.47;98921.22;5077093;28;20020;-56
2021/12/22 06:56:58;;;;;;;25.25;9.80;;;;;;;-7.49;95.96;98914.63;5079592;28;20040;-57
2021/12/22 06:59:24;;;;;;;22.25;8.57;;;;;;;-7.54;95.59;98920.28;5073509;28;20033;-57
2021/12/22 07:01:50;;;;;;;18.92;7.82;;;;;;;-7.69;100.00;98916.25;5082879;28;20066;-56
2021/12/22 07:04:17;;;;;;;21.73;7.85;;;;;;;-7.48;100.00;98916.38;5081269;28;20023;-55
2021/12/22 07:06:42;;;;;;;21.52;7.20;;;;;;;-7.32;97.82;98917.03;5078615;28;20036;-55
2021/12/22 07:09:08;;;;;;;18.58;6.72;;;;;;;-7.24;95.59;98921.66;5085613;28;20043;-54
2021/12/22 07:11:34;;;;;;;18.90;7.35;;;;;;;-7.27;95.12;98920.66;5078889;28;20037;-56
2021/12/22 07:14:01;;;;;;;18.45;7.25;;;;;;;-7.17;95.32;98913.53;5083627;28;20026;-55
2021/12/22 07:16:26;;;;;;;25.55;8.25;;;;;;;-7.06;96.37;98918.16;5076408;28;20032;-55
2021/12/22 07:18:52;;;;;;;19.58;7.70;;;;;;;-7.06;96.55;98925.78;5079764;28;20032;-55
2021/12/22 07:21:17;;;;;;;18.60;7.38;;;;;;;-7.02;93.15;98935.25;5081777;28;20081;-55
2021/12/22 07:23:43;;;;;;;19.13;8.02;;;;;;;-7.23;97.10;98935.19;5078619;28;20027;-54
2021/12/22 07:26:13;;;;;;;22.85;9.25;;;;;;;-7.13;100.00;98939.88;5074612;28;20040;-54
2021/12/22 07:28:39;;;;;;;35.45;11.90;;;;;;;-6.98;100.00;98932.06;5080162;28;20016;-56
2021/12/22 07:31:05;;;;;;;30.83;12.23;;;;;;;-6.77;100.00;98934.66;5078686;28;20058;-57
2021/12/22 07:33:30;;;;;;;29.20;11.35;;;;;;;-6.56;98.49;98941.41;5081523;28;20374;-55
2021/12/22 07:35:58;;;;;;;27.67;11.60;;;;;;;-6.57;100.00;98947.31;5076114;28;20078;-55
2021/12/22 07:38:23;;;;;;;32.83;11.65;;;;;;;-6.67;98.98;98951.13;5078876;28;20024;-55
2021/12/22 07:40:50;;;;;;;25.02;11.13;;;;;;;-6.52;99.73;98951.78;5079611;28;20028;-57
2021/12/22 07:43:15;;;;;;;25.60;10.18;;;;;;;-6.44;98.09;98963.09;5076825;28;20121;-55
2021/12/22 07:45:40;;;;;;;20.02;8.52;;;;;;;-6.40;98.61;98967.50;5079265;28;20036;-55
2021/12/22 07:48:06;;;;;;;20.77;8.95;;;;;;;-6.33;97.32;98963.56;5079602;28;20028;-55
2021/12/22 07:50:31;;;;;;;27.38;10.00;;;;;;;-6.46;98.83;98961.31;5077775;28;20028;-55
2021/12/22 07:52:56;;;;;;;24.08;9.65;;;;;;;-5.90;100.00;98961.84;5081530;28;20540;-55
2021/12/22 07:55:22;;;;;;;22.95;9.60;;;;;;;-5.83;99.01;98966.38;5075484;28;20047;-57
2021/12/22 07:57:47;;;;;;;30.13;10.50;;;;;;;-5.76;100.00;98970.88;5076054;28;20630;-55
2021/12/22 08:00:13;;;;;;;25.17;10.60;;;;;;;-5.64;99.85;98971.38;5079863;28;20047;-56
2021/12/22 08:02:39;;;;;;;25.83;11.63;;;;;;;-5.76;100.00;98973.44;5081194;28;20028;-53
2021/12/22 08:05:05;;;;;;;26.27;10.68;;;;;;;-5.31;100.00;98972.59;5077005;28;20176;-55
2021/12/22 08:07:31;;;;;;;25.35;10.55;;;;;;;-5.55;100.00;98975.97;5082528;28;20035;-55
2021/12/22 08:09:56;;;;;;;25.02;10.75;;;;;;;-5.52;100.00;98975.19;5080463;28;20028;-56
2021/12/22 08:12:21;;;;;;;26.75;10.95;;;;;;;-4.94;100.00;98974.84;5077378;28;20040;-53
2021/12/22 08:14:47;;;;;;;26.02;10.70;;;;;;;-4.98;100.00;98978.09;5081319;28;20650;-54
2021/12/22 08:17:13;;;;;;;29.35;11.45;;;;;;;-5.07;100.00;98975.22;5076183;28;20040;-55
2021/12/22 08:19:40;;;;;;;28.08;11.30;;;;;;;-4.87;100.00;98971.69;5082762;28;20145;-54
2021/12/22 08:22:05;;;;;;;26.33;11.43;;;;;;;-4.68;100.00;98977.44;5081671;28;20051;-54
2021/12/22 08:24:31;;;;;;;26.25;11.45;;;;;;;-4.59;100.00;98975.22;5078983;28;20027;-54
2021/12/22 08:26:56;;;;;;;27.83;11.85;;;;;;;-4.53;100.00;98982.19;5080630;28;20131;-54
2021/12/22 08:29:22;;;;;;;26.08;11.77;;;;;;;-4.46;100.00;98977.38;5074293;28;20028;-53
2021/12/22 08:31:48;;;;;;;27.10;12.13;;;;;;;-4.17;100.00;98977.50;5073512;28;20028;-55
2021/12/22 08:34:21;;;;;;;25.88;11.20;;;;;;;-3.94;100.00;98979.91;5074408;28;20024;-55
2021/12/22 08:39:30;;;;;;;26.20;11.93;;;;;;;-3.42;100.00;98989.19;5078732;28;20042;-54
2021/12/22 08:41:56;;;;;;;23.40;9.80;;;;;;;-3.74;100.00;98980.56;5075754;28;20041;-54
2021/12/22 08:44:22;;;;;;;20.38;10.35;;;;;;;-3.50;100.00;98978.75;5072008;28;20024;-54
2021/12/22 08:46:50;;;;;;;29.90;11.25;;;;;;;-3.66;100.00;98985.91;5076858;28;20043;-55
2021/12/22 08:49:17;;;;;;;27.30;11.90;;;;;;;-3.54;100.00;98978.63;5080075;28;20807;-55
2021/12/22 08:51:43;;;;;;;28.63;11.30;;;;;;;-3.23;100.00;98982.97;5075055;28;20036;-55
2021/12/22 08:54:09;;;;;;;24.20;10.38;;;;;;;-3.01;100.00;98984.47;5079655;28;20024;-55
2021/12/22 08:56:36;;;;;;;25.67;10.90;;;;;;;-3.05;100.00;98982.66;5076125;28;20631;-55
2021/12/22 08:59:04;;;;;;;22.38;10.38;;;;;;;-2.86;100.00;98983.19;5076984;28;20043;-56
2021/12/22 09:01:29;;;;;;;29.55;11.27;;;;;;;-2.84;100.00;98976.41;5078652;28;20566;-55
2021/12/22 09:03:55;;;;;;;27.13;10.80;;;;;;;-2.76;100.00;98974.94;5074636;28;20033;-55
2021/12/22 09:06:20;;;;;;;29.70;11.32;;;;;;;-2.80;100.00;98978.22;5080393;28;20064;-53
2021/12/22 09:08:45;;;;;;;21.45;10.32;;;;;;;-2.64;100.00;98979.53;5082037;28;20443;-54
2021/12/22 09:11:12;;;;;;;26.23;11.18;;;;;;;-2.64;100.00;98977.84;5079658;28;20044;-54
2021/12/22 09:13:39;;;;;;;24.02;11.02;;;;;;;-2.55;100.00;98969.56;5078433;28;20040;-56
2021/12/22 09:16:05;;;;;;;36.83;11.52;;;;;;;-2.61;100.00;98964.28;5082027;28;20040;-55
2021/12/22 09:18:31;;;;;;;23.13;9.48;;;;;;;-2.72;100.00;98967.41;5083994;28;20063;-54
2021/12/22 09:20:57;;;;;;;25.63;11.00;;;;;;;-2.49;100.00;98969.72;5081753;28;20654;-54
2021/12/22 09:23:22;;;;;;;25.70;10.90;;;;;;;-2.43;100.00;98963.91;5085618;28;20027;-56
2021/12/22 09:25:48;;;;;;;22.40;10.80;;;;;;;-2.36;100.00;98965.78;5078060;28;20068;-55
2021/12/22 09:28:14;;;;;;;22.48;10.07;;;;;;;-2.48;100.00;98966.34;5076352;28;20583;-54
2021/12/22 09:30:41;;;;;;;21.58;10.82;;;;;;;-1.91;100.00;98965.22;5075763;27;20041;-54
2021/12/22 09:33:08;;;;;;;24.30;11.23;;;;;;;-1.73;100.00;98969.03;5078573;28;20063;-54
2021/12/22 09:35:34;;;;;;;25.50;10.38;;;;;;;-1.63;100.00;98956.50;5079079;28;20410;-54
2021/12/22 09:38:00;;;;;;;20.85;10.35;;;;;;;-2.06;100.00;98964.84;5083289;28;20031;-54
2021/12/22 09:40:25;;;;;;;24.50;11.68;;;;;;;-1.43;100.00;98959.50;5086397;28;20031;-56
2021/12/22 09:42:51;;;;;;;26.10;10.85;;;;;;;-1.46;100.00;98953.47;5084222;28;20034;-55
2021/12/22 09:45:18;;;;;;;24.67;10.65;;;;;;;-1.28;100.00;98953.00;5082522;28;20088;-54
2021/12/22 09:48:01;;;;;;;22.35;10.95;;;;;;;-1.48;100.00;98950.88;5084353;28;20386;-54
2021/12/22 09:53:18;;;;;;;22.98;10.52;;;;;;;-1.22;100.00;98950.56;5076264;28;20092;-54
2021/12/22 09:55:43;;;;;;;22.80;11.07;;;;;;;-1.28;100.00;98943.63;5079511;28;20703;-53
2021/12/22 09:58:11;;;;;;;23.02;11.00;;;;;;;-0.93;100.00;98947.75;5081258;28;20038;-54
2021/12/22 10:00:38;;;;;;;22.00;10.30;;;;;;;-0.97;100.00;98944.28;5081423;28;20360;-53
2021/12/22 10:03:06;;;;;;;21.38;10.82;;;;;;;-1.21;100.00;98942.06;5080186;28;20027;-53
2021/12/22 10:05:35;;;;;;;22.20;10.63;;;;;;;-0.82;100.00;98936.03;5080850;28;20099;-54
2021/12/22 10:08:12;;;;;;;23.92;11.27;;;;;;;-0.66;100.00;98932.91;5077801;28;20036;-54
2021/12/22 10:10:48;;;;;;;23.52;10.95;;;;;;;-0.46;100.00;98923.03;5080110;28;20036;-54
2021/12/22 10:13:23;;;;;;;19.52;8.15;;;;;;;-0.24;100.00;98929.41;5080629;28;20023;-54
2021/12/22 10:15:48;;;;;;;23.00;10.38;;;;;;;-0.44;100.00;98921.34;5080647;28;20043;-54
2021/12/22 10:18:21;;;;;;;26.92;11.75;;;;;;;-0.43;100.00;98917.09;5075656;28;20508;-55
2021/12/22 10:20:49;;;;;;;26.27;10.48;;;;;;;-0.40;100.00;98912.03;5085946;28;20071;-57
2021/12/22 10:23:25;;;;;;;20.55;10.00;;;;;;;-0.76;100.00;98907.94;5078925;28;20017;-55
2021/12/22 10:26:12;;;;;;;22.48;10.80;;;;;;;-0.47;100.00;98907.63;5076037;28;20032;-56
2021/12/22 10:29:00;;;;;;;21.70;11.10;;;;;;;-0.16;100.00;98901.31;5065624;28;20066;-55
2021/12/22 10:31:39;;;;;;;22.05;11.23;;;;;;;-0.09;100.00;98900.59;5081070;28;20035;-56
2021/12/22 10:34:11;;;;;;;24.10;11.10;;;;;;;0.09;100.00;98888.88;5081020;28;20110;-56
2021/12/22 10:36:51;;;;;;;23.53;11.10;;;;;;;-0.08;100.00;98892.03;5081551;28;20154;-55
2021/12/22 10:39:29;;;;;;;18.60;8.90;;;;;;;-0.20;100.00;98889.28;5075853;28;20124;-55
2021/12/22 10:42:15;;;;;;;20.65;9.85;;;;;;;-0.03;100.00;98882.72;5078579;28;20640;-56
2021/12/22 10:44:42;;;;;;;13.80;6.65;;;;;;;-0.33;98.95;98875.41;5080180;28;20024;-55
2021/12/22 10:47:33;;;;;;;17.88;9.25;;;;;;;-0.51;99.96;98882.78;5076200;28;20123;-55
2021/12/22 10:50:04;;;;;;;18.73;8.57;;;;;;;-0.26;100.00;98884.03;5081364;28;20099;-57
2021/12/22 10:52:31;;;;;;;12.60;6.45;;;;;;;-0.37;98.97;98880.44;5068382;28;20098;-54
2021/12/22 10:55:14;;;;;;;14.88;7.68;;;;;;;-0.46;97.69;98870.88;5081734;28;20027;-57
2021/12/22 10:57:42;;;;;;;16.33;8.13;;;;;;;-0.46;100.00;98876.00;5081548;28;20036;-56
2021/12/22 11:00:17;;;;;;;17.27;9.00;;;;;;;-0.35;95.21;98877.09;5075469;28;20099;-55
2021/12/22 11:02:50;;;;;;;14.73;7.45;;;;;;;-0.45;97.66;98864.94;5092750;27;20496;-55
2021/12/22 11:05:27;;;;;;;14.43;7.80;;;;;;;-0.47;94.55;98858.94;5078608;28;20116;-55
2021/12/22 11:07:53;;;;;;;11.18;5.80;;;;;;;-0.44;95.88;98859.84;5082131;28;20024;-56
2021/12/22 11:10:29;;;;;;;14.93;7.90;;;;;;;-0.60;97.53;98857.84;5097930;27;20148;-54
2021/12/22 11:13:05;;;;;;;13.95;6.30;;;;;;;-0.47;94.87;98869.19;5078309;28;20012;-56
2021/12/22 11:15:39;;;;;;;12.98;6.68;;;;;;;-0.51;95.29;98862.28;5082003;28;20040;-56
2021/12/22 11:18:26;;;;;;;15.27;7.95;;;;;;;-0.48;96.28;98850.38;5084080;28;20032;-57
2021/12/22 11:21:13;;;;;;;13.98;8.65;;;;;;;-0.28;91.95;98850.69;5082295;28;20553;-55
2021/12/22 11:23:39;;;;;;;13.75;6.68;;;;;;;-0.16;94.33;98844.91;5077637;28;20038;-55
2021/12/22 11:26:06;;;;;;;12.63;6.88;;;;;;;-0.37;91.19;98844.56;5082189;28;20045;-56
2021/12/22 11:28:34;;;;;;;11.20;6.00;;;;;;;-0.33;90.44;98824.13;5078672;28;20030;-55
2021/12/22 11:31:02;;;;;;;13.95;7.32;;;;;;;-0.08;91.24;98833.03;5082708;28;20032;-55
2021/12/22 11:33:28;;;;;;;12.88;5.60;;;;;;;0.03;91.07;98817.81;5076697;28;20493;-55
2021/12/22 11:35:57;;;;;;;12.65;7.00;;;;;;;0.24;92.86;98822.41;5083741;28;20067;-56
2021/12/22 11:38:25;;;;;;;18.85;7.32;;;;;;;0.40;91.93;98815.75;5087111;28;20031;-57